Terminal Aerodrome Forecast
Issued by NWS Jackson, KY

Home | Current Version | Previous Version | Text Only | Print | Product List | Glossary On
Versions: 1 2 3 4 5 6 7 8 9 10 11 12 13 14 15 16 17 18 19 20
561
FTUS43 KJKL 182320
TAFLOZ
TAF
KLOZ 182320Z 1900/1924 29007KT P6SM FEW045 FEW070
      TEMPO 1908/1912 1SM BR
     FM191600 24007KT P6SM SCT030 SCT120=

USA.gov is the U.S. government's official web portal to all federal, state and local government web resources and services.